Time;durP1;ratioP1;P1;durP2;ratioP2;P2;SDS_P1;SDS_P2;PMS_P1;PMS_P2;Temp;Humidity;BMP_temperature;BMP_pressure;BME280_temperature;BME280_humidity;BME280_pressure;Samples;Min_cycle;Max_cycle;Signal;HPM_P1;HPM_P2
2021/03/03 00:00:32;;;;;;;26.67;13.23;;;3.30;99.90;;;;;;5047597;28;20048;-69
2021/03/03 00:02:59;;;;;;;28.07;12.73;;;3.30;99.90;;;;;;5046890;28;20052;-68
2021/03/03 00:05:26;;;;;;;33.67;12.47;;;3.20;99.90;;;;;;5046971;28;20048;-69
2021/03/03 00:07:52;;;;;;;29.57;11.77;;;3.30;99.90;;;;;;5047146;28;20048;-69
2021/03/03 00:10:19;;;;;;;27.77;12.17;;;3.10;99.90;;;;;;5048803;28;20040;-68
2021/03/03 00:12:46;;;;;;;24.17;12.07;;;3.10;99.90;;;;;;5048965;28;20040;-69
2021/03/03 00:15:14;;;;;;;26.63;12.47;;;3.00;99.90;;;;;;5046924;28;20413;-68
2021/03/03 00:17:41;;;;;;;24.77;11.93;;;3.10;99.90;;;;;;5049112;28;20045;-69
2021/03/03 00:20:09;;;;;;;25.03;11.73;;;3.30;99.90;;;;;;5047614;28;20232;-68
2021/03/03 00:22:35;;;;;;;27.07;11.90;;;3.10;99.90;;;;;;5047522;28;20399;-69
2021/03/03 00:25:02;;;;;;;29.30;12.17;;;3.10;99.90;;;;;;5048771;28;20052;-68
2021/03/03 00:27:29;;;;;;;24.13;12.20;;;3.10;99.90;;;;;;5047868;28;21039;-69
2021/03/03 00:29:57;;;;;;;22.90;11.13;;;3.00;99.90;;;;;;5047376;28;20052;-69
2021/03/03 00:32:23;;;;;;;29.20;12.33;;;3.00;99.90;;;;;;5046449;28;20071;-69
2021/03/03 00:34:50;;;;;;;31.20;12.40;;;3.10;99.90;;;;;;5044440;28;20049;-69
2021/03/03 00:37:16;;;;;;;32.10;13.27;;;3.00;99.90;;;;;;5046465;28;20052;-69
2021/03/03 00:39:43;;;;;;;24.87;12.83;;;3.00;99.90;;;;;;5047003;28;20501;-69
2021/03/03 00:42:10;;;;;;;32.03;12.60;;;3.00;99.90;;;;;;5046270;28;20053;-68
2021/03/03 00:44:37;;;;;;;26.37;13.47;;;3.10;99.90;;;;;;5046656;28;20090;-69
2021/03/03 00:47:04;;;;;;;33.13;14.13;;;3.00;99.90;;;;;;5044595;28;20596;-68
2021/03/03 00:49:31;;;;;;;31.50;13.40;;;2.90;99.90;;;;;;5046886;28;20071;-69
2021/03/03 00:51:58;;;;;;;30.03;14.40;;;3.00;99.90;;;;;;5046092;28;20053;-68
2021/03/03 00:54:24;;;;;;;28.97;12.63;;;3.20;99.90;;;;;;5046526;28;20052;-68
2021/03/03 00:56:51;;;;;;;24.80;12.87;;;3.20;99.90;;;;;;5047034;28;20075;-68
2021/03/03 00:59:17;;;;;;;24.13;11.60;;;2.90;99.90;;;;;;5046980;28;21181;-68
2021/03/03 01:01:47;;;;;;;28.63;13.17;;;2.80;99.90;;;;;;5046607;28;20063;-69
2021/03/03 01:04:14;;;;;;;27.23;13.13;;;2.80;99.90;;;;;;5045556;28;20068;-69
2021/03/03 01:06:41;;;;;;;25.93;12.57;;;2.70;99.90;;;;;;5046161;28;20056;-68
2021/03/03 01:09:07;;;;;;;26.27;12.03;;;2.70;99.90;;;;;;5046606;28;20056;-68
2021/03/03 01:11:34;;;;;;;29.57;12.83;;;2.80;99.90;;;;;;5046803;28;20048;-68
2021/03/03 01:14:00;;;;;;;29.23;11.87;;;2.90;99.90;;;;;;5047087;28;20110;-68
2021/03/03 01:16:27;;;;;;;28.07;12.30;;;3.00;99.90;;;;;;5046453;28;20159;-68
2021/03/03 01:18:54;;;;;;;28.53;12.00;;;2.70;99.90;;;;;;5049125;28;20139;-68
2021/03/03 01:21:21;;;;;;;25.63;11.87;;;2.60;99.90;;;;;;5049530;28;20455;-68
2021/03/03 01:23:48;;;;;;;31.50;12.90;;;2.50;99.90;;;;;;5046878;28;20052;-68
2021/03/03 01:26:14;;;;;;;27.33;12.43;;;2.60;99.90;;;;;;5048221;28;20516;-68
2021/03/03 01:28:40;;;;;;;29.20;12.80;;;2.70;99.90;;;;;;5048845;28;20539;-68
2021/03/03 01:31:07;;;;;;;26.50;11.10;;;2.70;99.90;;;;;;5045699;28;20052;-68
2021/03/03 01:33:34;;;;;;;27.73;12.37;;;2.60;99.90;;;;;;5045137;28;20052;-68
2021/03/03 01:36:00;;;;;;;25.47;11.57;;;2.50;99.90;;;;;;5046367;28;20095;-68
2021/03/03 01:38:28;;;;;;;26.17;12.83;;;2.40;99.90;;;;;;5045356;28;20475;-68
2021/03/03 01:40:55;;;;;;;26.57;12.37;;;2.40;99.90;;;;;;5045555;28;20044;-69
2021/03/03 01:43:22;;;;;;;28.83;12.60;;;2.40;99.90;;;;;;5045625;28;20098;-69
2021/03/03 01:45:49;;;;;;;30.00;12.90;;;2.30;99.90;;;;;;5046628;28;20048;-69
2021/03/03 01:48:16;;;;;;;26.57;11.20;;;2.20;99.90;;;;;;5045278;28;20118;-68
2021/03/03 01:50:42;;;;;;;29.60;12.33;;;2.30;99.90;;;;;;5044925;28;20052;-69
2021/03/03 01:53:09;;;;;;;26.47;11.83;;;2.20;99.90;;;;;;5044124;28;20049;-69
2021/03/03 01:55:37;;;;;;;26.03;12.03;;;2.20;99.90;;;;;;5047982;28;20110;-69
2021/03/03 01:58:04;;;;;;;26.90;12.73;;;2.20;99.90;;;;;;5050089;28;20044;-69
2021/03/03 02:00:31;;;;;;;27.67;12.23;;;2.20;99.90;;;;;;5049629;28;20056;-68
2021/03/03 02:02:57;;;;;;;30.13;12.93;;;2.30;99.90;;;;;;5047861;28;20090;-68
2021/03/03 02:05:24;;;;;;;29.90;12.93;;;2.30;99.90;;;;;;5050314;28;20056;-68
2021/03/03 02:07:56;;;;;;;25.53;11.93;;;2.20;99.90;;;;;;5050008;28;20049;-69
2021/03/03 02:10:32;;;;;;;31.43;12.27;;;2.30;99.90;;;;;;5049764;28;20079;-68
2021/03/03 02:13:06;;;;;;;25.60;12.30;;;2.30;99.90;;;;;;5049048;28;20057;-69
2021/03/03 02:15:36;;;;;;;25.50;11.73;;;2.10;99.90;;;;;;5050752;28;20513;-68
2021/03/03 02:18:04;;;;;;;26.37;11.63;;;2.00;99.90;;;;;;5050228;28;20326;-69
2021/03/03 02:20:36;;;;;;;28.00;11.57;;;2.10;99.90;;;;;;5050789;28;20064;-68
2021/03/03 02:23:13;;;;;;;27.60;11.63;;;2.00;99.90;;;;;;5048618;28;20075;-68
2021/03/03 02:25:43;;;;;;;28.90;12.27;;;2.10;99.90;;;;;;5049350;28;20052;-69
2021/03/03 02:28:11;;;;;;;27.23;12.33;;;2.10;99.90;;;;;;5049625;28;20052;-68
2021/03/03 02:30:40;;;;;;;24.97;11.47;;;2.10;99.90;;;;;;5049108;28;20044;-68
2021/03/03 02:33:08;;;;;;;24.87;11.60;;;2.00;99.90;;;;;;5048644;28;20421;-68
2021/03/03 02:35:35;;;;;;;25.93;11.73;;;1.90;99.90;;;;;;5054000;28;20051;-68
2021/03/03 02:38:05;;;;;;;24.63;12.40;;;1.90;99.90;;;;;;5052629;28;20048;-68
2021/03/03 02:40:33;;;;;;;29.07;12.07;;;1.90;99.90;;;;;;5048517;28;20049;-69
2021/03/03 02:43:01;;;;;;;28.63;13.43;;;1.90;99.90;;;;;;5048192;28;20421;-68
2021/03/03 02:45:29;;;;;;;26.03;12.33;;;1.90;99.90;;;;;;5049727;28;20044;-68
2021/03/03 02:47:56;;;;;;;29.27;11.27;;;2.00;99.90;;;;;;5048763;28;20444;-68
2021/03/03 02:50:23;;;;;;;28.57;12.33;;;2.00;99.90;;;;;;5049349;28;20048;-68
2021/03/03 02:52:51;;;;;;;29.10;12.70;;;1.90;99.90;;;;;;5047268;28;20135;-68
2021/03/03 02:55:19;;;;;;;29.37;12.77;;;1.90;99.90;;;;;;5049857;28;20052;-68
2021/03/03 02:57:46;;;;;;;23.60;11.53;;;1.90;99.90;;;;;;5049121;28;20063;-68
2021/03/03 03:00:16;;;;;;;26.43;11.53;;;1.90;99.90;;;;;;5048730;28;20075;-68
2021/03/03 03:02:46;;;;;;;29.83;12.37;;;1.80;99.90;;;;;;5047783;28;20049;-68
2021/03/03 03:05:14;;;;;;;23.10;11.37;;;1.70;99.90;;;;;;5047488;28;20424;-68
2021/03/03 03:07:48;;;;;;;23.83;10.67;;;1.70;99.90;;;;;;5048535;28;20045;-69
2021/03/03 03:10:16;;;;;;;21.33;10.30;;;1.70;99.90;;;;;;5048410;28;20055;-69
2021/03/03 03:12:47;;;;;;;25.67;11.77;;;1.80;99.90;;;;;;5047923;28;20060;-68
2021/03/03 03:15:18;;;;;;;26.03;11.70;;;1.60;99.90;;;;;;5048776;28;20772;-68
2021/03/03 03:17:50;;;;;;;22.73;11.17;;;1.60;99.90;;;;;;5048515;28;20048;-68
2021/03/03 03:20:18;;;;;;;23.90;11.10;;;1.70;99.90;;;;;;5049190;28;20102;-68
2021/03/03 03:22:46;;;;;;;27.93;10.03;;;1.70;99.90;;;;;;5048060;28;20098;-68
2021/03/03 03:25:15;;;;;;;24.40;10.37;;;1.60;99.90;;;;;;5045931;28;20052;-68
2021/03/03 03:27:43;;;;;;;27.40;12.07;;;1.70;99.90;;;;;;5046212;28;20059;-68
2021/03/03 03:30:11;;;;;;;27.57;11.57;;;1.70;99.90;;;;;;5043761;28;20127;-68
2021/03/03 03:32:40;;;;;;;23.10;10.40;;;1.60;99.90;;;;;;5048059;28;20503;-68
2021/03/03 03:35:08;;;;;;;24.77;11.50;;;1.50;99.90;;;;;;5045715;28;20098;-68
2021/03/03 03:37:36;;;;;;;25.73;10.90;;;1.50;99.90;;;;;;5046245;28;20098;-69
2021/03/03 03:40:04;;;;;;;24.80;10.43;;;1.50;99.90;;;;;;5045010;28;20048;-69
2021/03/03 03:42:31;;;;;;;20.60;10.40;;;1.50;99.90;;;;;;5044542;28;20071;-69
2021/03/03 03:44:58;;;;;;;23.77;10.37;;;1.40;99.90;;;;;;5045274;28;20048;-69
2021/03/03 03:47:25;;;;;;;27.23;11.33;;;1.50;99.90;;;;;;5046227;28;20044;-68
2021/03/03 03:49:53;;;;;;;22.57;11.07;;;1.50;99.90;;;;;;5045254;28;21624;-68
2021/03/03 03:52:20;;;;;;;22.53;10.73;;;1.50;99.90;;;;;;5045588;28;20040;-68
2021/03/03 03:54:52;;;;;;;22.43;10.50;;;1.50;99.90;;;;;;5046473;28;20509;-69
2021/03/03 03:57:19;;;;;;;22.93;10.53;;;1.40;99.90;;;;;;5044357;28;20048;-68
2021/03/03 03:59:45;;;;;;;25.93;10.60;;;1.30;99.90;;;;;;5045226;28;20063;-68
2021/03/03 04:02:12;;;;;;;27.33;11.80;;;1.30;99.90;;;;;;5044669;28;20056;-68
2021/03/03 04:04:39;;;;;;;24.90;10.80;;;1.30;99.90;;;;;;5045045;28;20048;-68
2021/03/03 04:07:07;;;;;;;23.53;11.57;;;1.30;99.90;;;;;;5045336;28;20105;-68
2021/03/03 04:09:34;;;;;;;26.87;11.53;;;1.30;99.90;;;;;;5044978;28;20056;-68
2021/03/03 04:12:01;;;;;;;26.80;11.80;;;1.40;99.90;;;;;;5044424;28;20135;-68
2021/03/03 04:14:27;;;;;;;27.10;11.03;;;1.40;99.90;;;;;;5044380;28;20527;-69
2021/03/03 04:16:54;;;;;;;26.50;11.13;;;1.40;99.90;;;;;;5043701;28;20048;-68
2021/03/03 04:19:21;;;;;;;24.47;11.00;;;1.40;99.90;;;;;;5044729;28;20046;-68
2021/03/03 04:21:47;;;;;;;21.03;10.60;;;1.30;99.90;;;;;;5045645;28;20477;-68
2021/03/03 04:24:15;;;;;;;25.07;11.17;;;1.30;99.90;;;;;;5043958;28;20067;-68
2021/03/03 04:26:41;;;;;;;28.90;12.00;;;1.40;99.90;;;;;;5043995;28;20055;-68
2021/03/03 04:29:08;;;;;;;25.73;11.27;;;1.40;99.90;;;;;;5044346;28;20048;-68
2021/03/03 04:31:34;;;;;;;28.77;11.73;;;1.40;99.90;;;;;;5044687;28;20052;-68
2021/03/03 04:34:01;;;;;;;22.83;11.07;;;1.40;99.90;;;;;;5044209;28;20048;-68
2021/03/03 04:36:27;;;;;;;28.03;11.33;;;1.30;99.90;;;;;;5044421;28;20563;-68
2021/03/03 04:38:54;;;;;;;32.87;12.33;;;1.20;99.90;;;;;;5043481;28;20052;-68
2021/03/03 04:41:21;;;;;;;27.27;11.87;;;1.20;99.90;;;;;;5044059;28;20408;-68
2021/03/03 04:43:48;;;;;;;25.90;10.90;;;1.20;99.90;;;;;;5042741;28;20063;-68
2021/03/03 04:46:14;;;;;;;24.03;10.93;;;1.20;99.90;;;;;;5044373;28;20113;-68
2021/03/03 04:48:41;;;;;;;23.37;10.07;;;1.20;99.90;;;;;;5044232;28;20044;-68
2021/03/03 04:51:08;;;;;;;24.27;11.33;;;1.20;99.90;;;;;;5045235;28;20088;-68
2021/03/03 04:53:34;;;;;;;23.80;10.47;;;1.20;99.90;;;;;;5042994;28;20059;-68
2021/03/03 04:56:01;;;;;;;29.70;10.57;;;1.10;99.90;;;;;;5045313;28;20056;-68
2021/03/03 04:58:28;;;;;;;26.10;10.90;;;1.10;99.90;;;;;;5043844;28;21109;-68
2021/03/03 05:00:55;;;;;;;24.67;11.87;;;1.00;99.90;;;;;;5044228;28;20067;-68
2021/03/03 05:03:21;;;;;;;27.63;12.13;;;1.00;99.90;;;;;;5043100;28;20052;-69
2021/03/03 05:05:48;;;;;;;29.43;11.87;;;1.00;99.90;;;;;;5044440;28;20052;-68
2021/03/03 05:08:14;;;;;;;38.17;11.80;;;1.10;99.90;;;;;;5042597;28;20098;-68
2021/03/03 05:10:41;;;;;;;30.70;12.57;;;1.20;99.90;;;;;;5042752;28;20106;-68
2021/03/03 05:13:15;;;;;;;24.60;11.50;;;1.10;99.90;;;;;;5042451;28;20509;-68
2021/03/03 05:15:42;;;;;;;29.27;11.93;;;1.10;99.90;;;;;;5043939;28;20085;-68
2021/03/03 05:18:10;;;;;;;29.87;13.30;;;1.10;99.90;;;;;;5043252;28;20337;-68
2021/03/03 05:20:36;;;;;;;30.47;11.70;;;1.10;99.90;;;;;;5045799;28;20045;-68
2021/03/03 05:23:03;;;;;;;28.97;12.47;;;1.10;99.90;;;;;;5043260;28;20061;-68
2021/03/03 05:25:30;;;;;;;31.43;12.63;;;1.10;99.90;;;;;;5044961;28;20052;-68
2021/03/03 05:27:57;;;;;;;30.67;12.80;;;1.00;99.90;;;;;;5043622;28;20048;-68
2021/03/03 05:30:24;;;;;;;28.30;12.70;;;1.10;99.90;;;;;;5043317;28;20052;-68
2021/03/03 05:32:53;;;;;;;27.03;12.17;;;1.00;99.90;;;;;;5045165;28;20131;-69
2021/03/03 05:35:20;;;;;;;30.20;12.00;;;1.00;99.90;;;;;;5042487;28;20059;-68
2021/03/03 05:37:47;;;;;;;24.57;11.63;;;1.00;99.90;;;;;;5042588;28;20048;-69
2021/03/03 05:40:14;;;;;;;26.50;12.10;;;0.90;99.90;;;;;;5043054;28;20129;-68
2021/03/03 05:42:41;;;;;;;27.53;10.73;;;1.00;99.90;;;;;;5042997;28;20044;-68
2021/03/03 05:45:09;;;;;;;27.60;12.40;;;1.10;99.90;;;;;;5043224;28;20048;-68
2021/03/03 05:47:37;;;;;;;28.33;12.00;;;1.20;99.90;;;;;;5043143;28;20052;-68
2021/03/03 05:50:06;;;;;;;28.77;12.87;;;1.20;99.90;;;;;;5043152;28;20119;-68
2021/03/03 05:52:33;;;;;;;27.90;12.97;;;1.10;99.90;;;;;;5042522;28;20044;-68
2021/03/03 05:55:02;;;;;;;25.60;12.20;;;1.10;99.90;;;;;;5043590;28;20433;-68
2021/03/03 05:57:31;;;;;;;32.10;13.40;;;1.10;99.90;;;;;;5043120;28;20420;-68
2021/03/03 05:59:57;;;;;;;29.20;12.67;;;1.10;99.90;;;;;;5043365;28;20147;-68
2021/03/03 06:02:25;;;;;;;29.67;12.63;;;1.20;99.90;;;;;;5043573;28;20057;-68
2021/03/03 06:04:52;;;;;;;26.70;12.43;;;1.30;99.90;;;;;;5046430;28;20053;-68
2021/03/03 06:07:21;;;;;;;29.37;11.93;;;1.20;99.90;;;;;;5043445;28;20068;-68
2021/03/03 06:09:47;;;;;;;30.80;12.40;;;1.30;99.90;;;;;;5043234;28;20486;-68
2021/03/03 06:12:14;;;;;;;27.30;11.73;;;1.20;99.90;;;;;;5041883;28;20134;-68
2021/03/03 06:14:41;;;;;;;30.10;13.13;;;1.20;99.90;;;;;;5042453;28;20466;-68
2021/03/03 06:17:07;;;;;;;35.17;15.30;;;1.30;99.90;;;;;;5042568;28;20197;-68
2021/03/03 06:19:34;;;;;;;32.20;14.47;;;1.40;99.90;;;;;;5041894;28;20095;-68
2021/03/03 06:22:25;;;;;;;28.27;13.90;;;1.50;99.90;;;;;;5042976;28;20056;-68
2021/03/03 06:24:53;;;;;;;31.43;13.00;;;1.60;99.90;;;;;;5035817;28;20135;-68
2021/03/03 06:27:22;;;;;;;28.03;12.57;;;1.70;99.90;;;;;;5039035;28;20049;-68
2021/03/03 06:30:09;;;;;;;28.47;13.40;;;1.70;99.90;;;;;;5037147;28;20046;-68
2021/03/03 06:32:52;;;;;;;33.75;12.75;;;1.80;99.90;;;;;;5046913;28;20055;-68
2021/03/03 06:35:20;;;;;;;33.07;13.57;;;1.80;99.90;;;;;;5041495;28;20048;-68
2021/03/03 06:37:55;;;;;;;30.73;13.20;;;1.90;99.90;;;;;;5039403;28;20106;-68
2021/03/03 06:40:22;;;;;;;32.40;12.53;;;1.90;99.90;;;;;;5041283;28;20048;-69
2021/03/03 06:42:53;;;;;;;29.47;12.90;;;2.00;99.90;;;;;;5046101;28;20079;-66
2021/03/03 06:45:27;;;;;;;28.97;13.77;;;2.10;99.90;;;;;;5046810;28;20055;-68
2021/03/03 06:47:53;;;;;;;30.07;13.30;;;2.20;99.90;;;;;;5046532;28;20358;-66
2021/03/03 06:50:21;;;;;;;32.27;13.00;;;2.20;99.90;;;;;;5045921;28;20045;-66
2021/03/03 06:52:52;;;;;;;34.30;13.87;;;2.30;99.90;;;;;;5045624;28;20057;-66
2021/03/03 06:55:19;;;;;;;30.03;12.40;;;2.30;99.90;;;;;;5048817;28;20052;-67
2021/03/03 06:57:45;;;;;;;28.77;11.90;;;2.50;99.90;;;;;;5049000;28;20064;-65
2021/03/03 07:00:13;;;;;;;27.83;12.47;;;2.50;99.90;;;;;;5048215;28;20056;-67
2021/03/03 07:02:39;;;;;;;32.77;13.27;;;2.60;99.90;;;;;;5046903;28;20056;-64
2021/03/03 07:05:07;;;;;;;27.73;12.37;;;2.60;99.90;;;;;;5045892;28;20063;-65
2021/03/03 07:07:33;;;;;;;34.27;13.60;;;2.70;99.90;;;;;;5046950;28;20122;-66
2021/03/03 07:10:07;;;;;;;31.63;14.27;;;2.70;99.90;;;;;;5046247;28;20122;-67
2021/03/03 07:12:47;;;;;;;38.27;13.43;;;2.70;99.90;;;;;;5048814;28;20056;-67
2021/03/03 07:15:15;;;;;;;33.27;13.50;;;2.80;99.90;;;;;;5048102;28;20049;-67
2021/03/03 07:17:43;;;;;;;34.50;14.17;;;2.70;99.90;;;;;;5046648;28;20412;-67
2021/03/03 07:20:16;;;;;;;33.87;14.33;;;2.80;99.90;;;;;;5046793;28;20087;-68
2021/03/03 07:22:47;;;;;;;30.97;14.30;;;2.90;99.90;;;;;;5050217;28;20056;-68
2021/03/03 07:25:16;;;;;;;32.93;13.43;;;2.90;99.90;;;;;;5048983;28;20135;-68
2021/03/03 07:27:44;;;;;;;35.03;14.20;;;3.00;99.90;;;;;;5049391;28;20279;-67
2021/03/03 07:30:14;;;;;;;35.43;14.83;;;3.10;99.90;;;;;;5043985;28;20794;-68
2021/03/03 07:32:41;;;;;;;32.03;13.90;;;3.20;99.90;;;;;;5045139;28;20389;-68
2021/03/03 07:35:10;;;;;;;29.97;13.50;;;3.30;99.90;;;;;;5046540;28;20087;-68
2021/03/03 07:37:39;;;;;;;31.80;12.87;;;3.50;99.90;;;;;;5046354;28;20080;-68
2021/03/03 07:40:08;;;;;;;33.47;13.73;;;3.60;99.90;;;;;;5045902;28;20048;-67
2021/03/03 07:42:36;;;;;;;27.43;12.33;;;3.50;99.90;;;;;;5045415;28;20048;-68
2021/03/03 07:45:07;;;;;;;29.83;12.90;;;3.60;99.90;;;;;;5045913;28;20059;-66
2021/03/03 07:47:36;;;;;;;33.40;13.17;;;3.70;99.90;;;;;;5046083;28;20084;-68
2021/03/03 07:50:06;;;;;;;29.10;12.40;;;3.80;99.90;;;;;;5044125;28;20044;-68
2021/03/03 07:52:34;;;;;;;38.63;13.43;;;3.90;99.90;;;;;;5043226;28;20467;-67
2021/03/03 07:55:01;;;;;;;27.50;11.37;;;3.90;99.90;;;;;;5043526;28;20090;-67
2021/03/03 07:57:29;;;;;;;29.70;12.37;;;4.00;99.90;;;;;;5044770;28;20570;-69
2021/03/03 07:59:56;;;;;;;30.07;12.17;;;4.00;99.90;;;;;;5044819;28;20048;-67
2021/03/03 08:02:45;;;;;;;24.97;11.90;;;4.10;99.90;;;;;;5044085;28;20041;-70
2021/03/03 08:05:13;;;;;;;28.67;12.47;;;4.20;99.90;;;;;;5044015;28;20056;-69
2021/03/03 08:07:39;;;;;;;33.73;11.70;;;4.30;99.90;;;;;;5044819;28;20091;-67
2021/03/03 08:10:32;;;;;;;31.40;13.10;;;4.40;99.90;;;;;;5043349;28;20070;-68
2021/03/03 08:13:07;;;;;;;30.33;13.27;;;4.50;99.90;;;;;;5045192;28;20040;-69
2021/03/03 08:15:39;;;;;;;30.47;12.60;;;4.70;99.90;;;;;;5045568;28;20063;-65
2021/03/03 08:18:26;;;;;;;39.03;13.70;;;4.60;99.90;;;;;;5045637;28;20059;-66
2021/03/03 08:20:53;;;;;;;30.57;13.43;;;4.70;99.90;;;;;;5045066;28;20483;-66
2021/03/03 08:23:48;;;;;;;29.27;12.90;;;4.70;99.90;;;;;;5043968;28;20080;-68
2021/03/03 08:26:37;;;;;;;26.17;12.57;;;5.00;99.90;;;;;;5046705;28;20064;-67
2021/03/03 08:29:27;;;;;;;27.97;12.40;;;5.40;99.90;;;;;;5046576;28;20654;-67
2021/03/03 08:31:54;;;;;;;25.97;12.13;;;5.70;99.90;;;;;;5042942;28;20143;-67
2021/03/03 08:34:21;;;;;;;24.03;12.80;;;5.90;99.90;;;;;;5041956;28;20048;-67
2021/03/03 08:36:57;;;;;;;29.90;12.80;;;6.20;99.90;;;;;;5043212;28;20053;-68
2021/03/03 08:39:28;;;;;;;27.50;13.30;;;6.50;99.90;;;;;;5044063;28;20063;-70
2021/03/03 08:41:55;;;;;;;31.27;12.98;;;6.80;99.90;;;;;;5044598;28;20041;-64
2021/03/03 08:44:22;;;;;;;30.30;12.93;;;6.80;99.90;;;;;;5043137;28;20044;-65
2021/03/03 08:46:50;;;;;;;29.67;12.88;;;6.90;99.90;;;;;;5043189;28;20048;-66
2021/03/03 08:49:31;;;;;;;35.05;13.60;;;7.00;99.90;;;;;;5044080;28;20051;-66
2021/03/03 08:52:12;;;;;;;30.50;14.30;;;7.00;99.90;;;;;;5044583;28;20838;-67
2021/03/03 08:54:46;;;;;;;30.58;13.07;;;7.30;99.90;;;;;;5045413;28;20090;-67
2021/03/03 08:57:37;;;;;;;32.20;12.60;;;7.60;99.90;;;;;;5045813;28;20078;-68
2021/03/03 09:00:06;;;;;;;31.48;13.48;;;7.80;99.90;;;;;;5045536;28;20048;-68
2021/03/03 09:02:40;;;;;;;31.73;12.85;;;8.00;99.90;;;;;;5045144;28;20516;-70
2021/03/03 09:05:12;;;;;;;27.40;12.48;;;7.90;99.90;;;;;;5045574;28;20155;-70
2021/03/03 09:07:39;;;;;;;33.42;13.57;;;8.10;99.90;;;;;;5042474;28;20056;-70
2021/03/03 09:10:10;;;;;;;33.20;12.75;;;8.10;99.90;;;;;;5043777;28;20059;-71
2021/03/03 09:12:40;;;;;;;33.40;12.93;;;8.10;99.90;;;;;;5042377;28;20084;-70
2021/03/03 09:15:09;;;;;;;28.92;13.77;;;7.90;99.90;;;;;;5043454;28;20079;-71
2021/03/03 09:17:37;;;;;;;31.70;13.95;;;7.90;99.90;;;;;;5039941;28;20048;-71
2021/03/03 09:20:06;;;;;;;31.38;12.77;;;7.90;99.90;;;;;;5042088;28;20839;-71
2021/03/03 09:22:36;;;;;;;32.15;13.57;;;8.00;99.90;;;;;;5040660;28;20060;-71
2021/03/03 09:25:11;;;;;;;41.53;14.13;;;8.00;99.90;;;;;;5042399;28;20048;-71
2021/03/03 09:27:38;;;;;;;32.00;13.32;;;8.00;99.90;;;;;;5043897;28;20048;-71
2021/03/03 09:30:07;;;;;;;37.08;13.93;;;8.00;99.90;;;;;;5041992;28;20497;-71
2021/03/03 09:32:34;;;;;;;45.28;14.93;;;8.00;99.90;;;;;;5039878;28;20071;-71
2021/03/03 09:35:03;;;;;;;34.65;14.15;;;8.10;99.90;;;;;;5041010;28;20056;-71
2021/03/03 09:37:38;;;;;;;29.58;13.32;;;8.30;99.90;;;;;;5044070;28;20084;-71
2021/03/03 09:40:07;;;;;;;46.00;14.32;;;8.30;99.90;;;;;;5043318;28;20086;-71
2021/03/03 09:42:39;;;;;;;37.15;14.20;;;8.30;99.90;;;;;;5043263;28;20446;-71
2021/03/03 09:45:08;;;;;;;33.83;13.25;;;8.40;99.90;;;;;;5044826;28;20052;-70
2021/03/03 09:47:39;;;;;;;34.60;13.73;;;8.50;99.90;;;;;;5043352;28;20876;-71
2021/03/03 09:50:08;;;;;;;30.52;14.27;;;8.60;99.90;;;;;;5044212;28;20049;-70
2021/03/03 09:52:38;;;;;;;36.70;14.40;;;8.90;99.90;;;;;;5042867;28;20060;-71
2021/03/03 09:55:11;;;;;;;36.78;13.95;;;9.10;99.90;;;;;;5043845;28;20131;-70
2021/03/03 09:57:38;;;;;;;35.20;15.27;;;9.20;99.90;;;;;;5043203;28;20060;-70
2021/03/03 10:00:08;;;;;;;31.30;14.73;;;9.30;99.90;;;;;;5043744;28;20188;-70
2021/03/03 10:02:37;;;;;;;35.13;14.35;;;9.30;99.90;;;;;;5043121;28;20080;-70
2021/03/03 10:05:05;;;;;;;35.88;14.02;;;9.40;99.90;;;;;;5044601;28;20052;-70
2021/03/03 10:07:32;;;;;;;35.42;13.95;;;9.30;99.90;;;;;;5044067;28;20044;-70
2021/03/03 10:10:04;;;;;;;28.13;13.23;;;9.30;99.90;;;;;;5042748;28;20501;-70
2021/03/03 10:12:35;;;;;;;29.40;14.43;;;9.40;99.90;;;;;;5042601;28;20110;-70
2021/03/03 10:15:06;;;;;;;31.83;13.25;;;9.50;99.90;;;;;;5043139;28;20052;-70
2021/03/03 10:17:38;;;;;;;31.33;13.35;;;9.90;99.90;;;;;;5047147;28;20056;-70
2021/03/03 10:20:08;;;;;;;37.38;14.65;;;10.30;99.90;;;;;;5043016;28;20048;-70
2021/03/03 10:22:36;;;;;;;32.25;13.98;;;10.60;99.90;;;;;;5044916;28;20048;-71
2021/03/03 10:25:06;;;;;;;34.28;15.48;;;11.30;99.90;;;;;;5039090;28;20472;-70
2021/03/03 10:27:38;;;;;;;25.83;13.88;;;11.90;99.90;;;;;;5047907;28;20424;-70
2021/03/03 10:30:22;;;;;;;32.33;15.85;;;12.20;99.90;;;;;;5045535;28;20463;-70
2021/03/03 10:32:49;;;;;;;35.90;15.70;;;12.40;99.90;;;;;;5043811;28;20052;-72
2021/03/03 10:35:16;;;;;;;30.58;15.57;;;12.50;99.90;;;;;;5044632;28;20639;-71
2021/03/03 10:37:42;;;;;;;34.90;15.77;;;12.40;99.90;;;;;;5046477;28;20048;-71
2021/03/03 10:40:15;;;;;;;33.67;15.45;;;11.50;99.90;;;;;;5044067;28;20119;-71
2021/03/03 10:42:41;;;;;;;28.30;15.65;;;12.10;99.90;;;;;;5045436;28;20078;-71
2021/03/03 10:45:22;;;;;;;31.05;16.42;;;12.10;99.90;;;;;;5046348;28;20048;-71
2021/03/03 10:47:49;;;;;;;33.15;15.80;;;12.20;99.90;;;;;;5045899;28;20053;-71
2021/03/03 10:50:18;;;;;;;35.35;15.65;;;12.20;99.90;;;;;;5046550;28;20057;-71
2021/03/03 10:52:59;;;;;;;40.67;18.25;;;12.10;99.90;;;;;;5045893;28;20461;-71
2021/03/03 10:55:31;;;;;;;35.45;15.52;;;12.20;99.90;;;;;;5046435;28;20142;-71
2021/03/03 10:58:02;;;;;;;38.83;17.13;;;12.30;99.90;;;;;;5044261;28;20152;-71
2021/03/03 11:00:29;;;;;;;36.17;16.30;;;12.40;99.90;;;;;;5035686;28;20056;-72
2021/03/03 11:03:03;;;;;;;39.03;16.83;;;12.30;99.90;;;;;;5035334;28;20741;-71
2021/03/03 11:05:30;;;;;;;29.50;16.17;;;12.20;99.90;;;;;;5046234;28;20463;-71
2021/03/03 11:07:58;;;;;;;43.05;18.10;;;11.60;99.90;;;;;;5042338;28;20045;-71
2021/03/03 11:10:24;;;;;;;35.60;16.00;;;11.80;99.90;;;;;;5046454;28;20361;-71
2021/03/03 11:12:52;;;;;;;33.35;17.70;;;12.00;99.90;;;;;;5046094;28;20091;-71
2021/03/03 11:15:19;;;;;;;44.63;16.58;;;12.00;99.90;;;;;;5046730;28;20052;-71
2021/03/03 11:17:46;;;;;;;35.20;17.88;;;11.90;99.90;;;;;;5046454;28;20060;-71
2021/03/03 11:20:13;;;;;;;44.03;17.30;;;12.00;99.90;;;;;;5045927;28;20060;-71
2021/03/03 11:22:39;;;;;;;38.28;18.85;;;12.00;99.90;;;;;;5045196;28;20052;-71
2021/03/03 11:25:07;;;;;;;39.92;17.83;;;12.10;99.90;;;;;;5045706;28;20057;-71
2021/03/03 11:27:33;;;;;;;39.65;17.20;;;12.20;99.90;;;;;;5045944;28;20054;-71
2021/03/03 11:30:01;;;;;;;41.25;18.17;;;12.10;99.90;;;;;;5045786;28;20053;-71
2021/03/03 11:32:27;;;;;;;31.50;16.95;;;12.20;99.90;;;;;;5047641;28;20481;-71
2021/03/03 11:34:53;;;;;;;;;;;11.90;99.90;;;;;;5043198;28;20045;-71
2021/03/03 11:37:20;;;;;;;37.38;18.10;;;11.60;99.90;;;;;;5046458;28;20351;-71
2021/03/03 11:39:47;;;;;;;35.08;17.95;;;11.90;99.90;;;;;;5048016;28;20433;-71
2021/03/03 11:42:13;;;;;;;38.10;18.00;;;11.80;99.90;;;;;;5046179;28;20105;-71
2021/03/03 11:44:40;;;;;;;32.20;17.33;;;12.00;99.90;;;;;;5045690;28;20056;-71
2021/03/03 11:47:07;;;;;;;40.25;17.98;;;12.10;99.90;;;;;;5046054;28;20048;-71
2021/03/03 11:49:34;;;;;;;35.83;18.42;;;12.00;99.90;;;;;;5046142;28;20090;-71
2021/03/03 11:52:00;;;;;;;30.90;16.73;;;12.00;99.90;;;;;;5048342;28;20125;-70
2021/03/03 11:54:27;;;;;;;31.25;17.15;;;11.80;99.90;;;;;;5046511;28;20052;-71
2021/03/03 11:56:53;;;;;;;31.90;17.88;;;11.90;99.90;;;;;;5045382;28;20041;-70
2021/03/03 11:59:20;;;;;;;33.80;18.20;;;11.80;99.90;;;;;;5046988;28;20090;-71
2021/03/03 12:01:48;;;;;;;;;;;11.60;99.90;;;;;;5048369;28;20086;-71
2021/03/03 12:04:15;;;;;;;33.08;18.35;;;11.70;99.90;;;;;;5047150;28;19932;-70
2021/03/03 12:06:42;;;;;;;29.90;17.45;;;11.50;99.90;;;;;;5048917;28;20045;-71
2021/03/03 12:09:11;;;;;;;;;;;11.30;99.90;;;;;;5048571;28;20146;-71
2021/03/03 12:11:37;;;;;;;35.80;18.92;;;11.60;99.90;;;;;;5049848;28;19924;-71
2021/03/03 12:14:04;;;;;;;36.45;18.50;;;11.40;99.90;;;;;;5048383;28;20496;-71
2021/03/03 12:16:31;;;;;;;35.33;18.52;;;11.30;99.90;;;;;;5050491;28;20051;-71
2021/03/03 12:18:57;;;;;;;38.10;19.15;;;11.20;99.90;;;;;;5052855;28;20045;-71
2021/03/03 12:21:25;;;;;;;41.38;19.65;;;11.30;99.90;;;;;;5053983;28;20106;-71
2021/03/03 12:23:51;;;;;;;31.75;17.48;;;11.20;99.90;;;;;;5050632;28;20574;-71
2021/03/03 12:26:18;;;;;;;36.90;19.38;;;11.20;99.90;;;;;;5053025;28;20052;-71
2021/03/03 12:28:44;;;;;;;;;;;11.40;99.90;;;;;;5053314;28;20086;-71
2021/03/03 12:31:12;;;;;;;33.65;16.98;;;11.10;99.90;;;;;;5052953;28;19920;-71
2021/03/03 12:33:41;;;;;;;30.80;16.45;;;11.20;99.90;;;;;;5052496;28;20063;-71
2021/03/03 12:36:09;;;;;;;32.78;17.75;;;11.30;99.90;;;;;;5042464;28;20178;-72
2021/03/03 12:38:36;;;;;;;30.83;17.15;;;11.50;99.90;;;;;;5046549;28;20472;-71
2021/03/03 12:41:04;;;;;;;36.95;16.52;;;11.60;99.90;;;;;;5042953;28;20044;-71
2021/03/03 12:43:31;;;;;;;31.45;16.45;;;11.50;99.90;;;;;;5041384;28;20165;-71